sensor_id;sensor_type;location;lat;lon;timestamp;P1;durP1;ratioP1;P2;durP2;ratioP2
462;SDS011;218;51.902;9.542;2023-08-08T00:02:12;4.00;;;3.70;;
462;SDS011;218;51.902;9.542;2023-08-08T00:04:39;4.47;;;4.10;;
462;SDS011;218;51.902;9.542;2023-08-08T00:07:07;4.05;;;3.70;;
462;SDS011;218;51.902;9.542;2023-08-08T00:09:34;4.18;;;3.78;;
462;SDS011;218;51.902;9.542;2023-08-08T00:12:03;4.95;;;3.40;;
462;SDS011;218;51.902;9.542;2023-08-08T00:14:30;3.97;;;3.67;;
462;SDS011;218;51.902;9.542;2023-08-08T00:16:57;4.10;;;3.80;;
462;SDS011;218;51.902;9.542;2023-08-08T00:19:24;4.40;;;4.10;;
462;SDS011;218;51.902;9.542;2023-08-08T00:21:51;3.70;;;3.40;;
462;SDS011;218;51.902;9.542;2023-08-08T00:24:20;4.95;;;3.80;;
462;SDS011;218;51.902;9.542;2023-08-08T00:26:47;4.03;;;3.70;;
462;SDS011;218;51.902;9.542;2023-08-08T00:29:14;4.60;;;4.20;;
462;SDS011;218;51.902;9.542;2023-08-08T00:31:41;3.78;;;3.47;;
462;SDS011;218;51.902;9.542;2023-08-08T00:34:08;5.20;;;4.70;;
462;SDS011;218;51.902;9.542;2023-08-08T00:36:35;6.03;;;4.22;;
462;SDS011;218;51.902;9.542;2023-08-08T00:39:02;5.80;;;4.95;;
462;SDS011;218;51.902;9.542;2023-08-08T00:41:30;6.60;;;4.80;;
462;SDS011;218;51.902;9.542;2023-08-08T00:43:57;5.28;;;4.88;;
462;SDS011;218;51.902;9.542;2023-08-08T00:46:25;5.07;;;4.30;;
462;SDS011;218;51.902;9.542;2023-08-08T00:48:52;5.20;;;4.70;;
462;SDS011;218;51.902;9.542;2023-08-08T00:51:19;5.60;;;4.78;;
462;SDS011;218;51.902;9.542;2023-08-08T00:53:47;6.18;;;4.60;;
462;SDS011;218;51.902;9.542;2023-08-08T00:56:14;4.70;;;3.80;;
462;SDS011;218;51.902;9.542;2023-08-08T00:58:43;6.10;;;4.70;;
462;SDS011;218;51.902;9.542;2023-08-08T01:01:11;4.65;;;4.10;;
462;SDS011;218;51.902;9.542;2023-08-08T01:03:38;4.85;;;4.43;;
462;SDS011;218;51.902;9.542;2023-08-08T01:06:06;4.20;;;3.80;;
462;SDS011;218;51.902;9.542;2023-08-08T01:08:39;4.55;;;4.15;;
462;SDS011;218;51.902;9.542;2023-08-08T01:11:09;5.40;;;5.00;;
462;SDS011;218;51.902;9.542;2023-08-08T01:13:36;5.05;;;4.55;;
462;SDS011;218;51.902;9.542;2023-08-08T01:16:06;5.35;;;4.85;;
462;SDS011;218;51.902;9.542;2023-08-08T01:18:34;4.78;;;4.28;;
462;SDS011;218;51.902;9.542;2023-08-08T01:21:03;5.65;;;5.10;;
462;SDS011;218;51.902;9.542;2023-08-08T01:23:33;6.10;;;5.50;;
462;SDS011;218;51.902;9.542;2023-08-08T01:26:13;6.85;;;5.95;;
462;SDS011;218;51.902;9.542;2023-08-08T01:28:41;5.90;;;5.37;;
462;SDS011;218;51.902;9.542;2023-08-08T01:31:09;6.32;;;5.72;;
462;SDS011;218;51.902;9.542;2023-08-08T01:33:36;7.50;;;6.70;;
462;SDS011;218;51.902;9.542;2023-08-08T01:36:05;6.60;;;6.00;;
462;SDS011;218;51.902;9.542;2023-08-08T01:38:40;7.30;;;6.10;;
462;SDS011;218;51.902;9.542;2023-08-08T01:41:07;6.57;;;5.78;;
462;SDS011;218;51.902;9.542;2023-08-08T01:43:36;7.00;;;6.40;;
462;SDS011;218;51.902;9.542;2023-08-08T01:46:05;6.13;;;5.57;;
462;SDS011;218;51.902;9.542;2023-08-08T01:48:32;6.40;;;5.90;;
462;SDS011;218;51.902;9.542;2023-08-08T01:50:59;6.82;;;5.70;;
462;SDS011;218;51.902;9.542;2023-08-08T01:53:26;6.63;;;5.93;;
462;SDS011;218;51.902;9.542;2023-08-08T01:55:53;8.47;;;5.93;;
462;SDS011;218;51.902;9.542;2023-08-08T01:58:20;6.00;;;5.40;;
462;SDS011;218;51.902;9.542;2023-08-08T02:00:49;5.95;;;5.35;;
462;SDS011;218;51.902;9.542;2023-08-08T02:03:15;5.78;;;5.28;;
462;SDS011;218;51.902;9.542;2023-08-08T02:05:42;5.90;;;5.40;;
462;SDS011;218;51.902;9.542;2023-08-08T02:08:10;6.43;;;4.85;;
462;SDS011;218;51.902;9.542;2023-08-08T02:10:38;5.85;;;5.05;;
462;SDS011;218;51.902;9.542;2023-08-08T02:13:04;5.68;;;5.18;;
462;SDS011;218;51.902;9.542;2023-08-08T02:15:32;6.07;;;4.80;;
462;SDS011;218;51.902;9.542;2023-08-08T02:18:00;5.80;;;4.73;;
462;SDS011;218;51.902;9.542;2023-08-08T02:20:28;5.22;;;4.78;;
462;SDS011;218;51.902;9.542;2023-08-08T02:22:56;4.70;;;4.40;;
462;SDS011;218;51.902;9.542;2023-08-08T02:25:23;5.40;;;4.95;;
462;SDS011;218;51.902;9.542;2023-08-08T02:27:50;5.30;;;4.80;;
462;SDS011;218;51.902;9.542;2023-08-08T02:30:17;4.85;;;4.45;;
462;SDS011;218;51.902;9.542;2023-08-08T02:32:44;5.50;;;5.00;;
462;SDS011;218;51.902;9.542;2023-08-08T02:35:13;4.93;;;4.20;;
462;SDS011;218;51.902;9.542;2023-08-08T02:37:40;6.93;;;4.90;;
462;SDS011;218;51.902;9.542;2023-08-08T02:40:07;5.32;;;4.80;;
462;SDS011;218;51.902;9.542;2023-08-08T02:42:35;6.10;;;5.05;;
462;SDS011;218;51.902;9.542;2023-08-08T02:45:02;6.13;;;5.00;;
462;SDS011;218;51.902;9.542;2023-08-08T02:47:29;7.20;;;5.33;;
462;SDS011;218;51.902;9.542;2023-08-08T02:49:56;6.72;;;5.22;;
462;SDS011;218;51.902;9.542;2023-08-08T02:52:25;5.07;;;4.60;;
462;SDS011;218;51.902;9.542;2023-08-08T02:54:52;5.20;;;4.80;;
462;SDS011;218;51.902;9.542;2023-08-08T02:57:19;4.72;;;4.32;;
462;SDS011;218;51.902;9.542;2023-08-08T02:59:46;4.90;;;4.50;;
462;SDS011;218;51.902;9.542;2023-08-08T03:02:13;5.20;;;4.70;;
462;SDS011;218;51.902;9.542;2023-08-08T03:04:40;4.20;;;3.90;;
462;SDS011;218;51.902;9.542;2023-08-08T03:07:07;4.90;;;4.40;;
462;SDS011;218;51.902;9.542;2023-08-08T03:09:36;4.60;;;4.30;;
462;SDS011;218;51.902;9.542;2023-08-08T03:12:03;4.68;;;4.00;;
462;SDS011;218;51.902;9.542;2023-08-08T03:14:31;4.30;;;4.00;;
462;SDS011;218;51.902;9.542;2023-08-08T03:16:58;4.70;;;4.20;;
462;SDS011;218;51.902;9.542;2023-08-08T03:19:26;4.43;;;3.70;;
462;SDS011;218;51.902;9.542;2023-08-08T03:21:53;5.25;;;4.43;;
462;SDS011;218;51.902;9.542;2023-08-08T03:24:20;4.00;;;3.70;;
462;SDS011;218;51.902;9.542;2023-08-08T03:26:48;7.80;;;3.67;;
462;SDS011;218;51.902;9.542;2023-08-08T03:29:16;4.00;;;3.70;;
462;SDS011;218;51.902;9.542;2023-08-08T03:31:42;4.63;;;3.58;;
462;SDS011;218;51.902;9.542;2023-08-08T03:34:10;3.50;;;3.30;;
462;SDS011;218;51.902;9.542;2023-08-08T03:36:37;3.83;;;3.15;;
462;SDS011;218;51.902;9.542;2023-08-08T03:39:04;3.70;;;3.40;;
462;SDS011;218;51.902;9.542;2023-08-08T03:41:33;3.88;;;3.40;;
462;SDS011;218;51.902;9.542;2023-08-08T03:44:02;3.80;;;3.50;;
462;SDS011;218;51.902;9.542;2023-08-08T03:46:29;3.15;;;2.90;;
462;SDS011;218;51.902;9.542;2023-08-08T03:48:57;3.77;;;3.47;;
462;SDS011;218;51.902;9.542;2023-08-08T03:51:24;3.97;;;3.20;;
462;SDS011;218;51.902;9.542;2023-08-08T03:53:51;3.30;;;3.00;;
462;SDS011;218;51.902;9.542;2023-08-08T03:56:18;4.00;;;3.63;;
462;SDS011;218;51.902;9.542;2023-08-08T03:58:45;3.73;;;3.43;;
462;SDS011;218;51.902;9.542;2023-08-08T04:01:13;3.72;;;3.42;;
462;SDS011;218;51.902;9.542;2023-08-08T04:03:40;4.00;;;3.60;;
462;SDS011;218;51.902;9.542;2023-08-08T04:06:07;3.80;;;3.60;;
462;SDS011;218;51.902;9.542;2023-08-08T04:08:34;3.70;;;3.40;;
462;SDS011;218;51.902;9.542;2023-08-08T04:11:01;3.92;;;3.53;;
462;SDS011;218;51.902;9.542;2023-08-08T04:13:28;3.40;;;3.10;;
462;SDS011;218;51.902;9.542;2023-08-08T04:15:55;4.05;;;3.55;;
462;SDS011;218;51.902;9.542;2023-08-08T04:18:24;3.40;;;3.10;;
462;SDS011;218;51.902;9.542;2023-08-08T04:20:51;3.72;;;3.42;;
462;SDS011;218;51.902;9.542;2023-08-08T04:23:18;3.40;;;3.10;;
462;SDS011;218;51.902;9.542;2023-08-08T04:25:45;3.78;;;3.47;;
462;SDS011;218;51.902;9.542;2023-08-08T04:28:12;3.67;;;3.37;;
462;SDS011;218;51.902;9.542;2023-08-08T04:30:39;3.60;;;3.40;;
462;SDS011;218;51.902;9.542;2023-08-08T04:33:06;4.00;;;3.80;;
462;SDS011;218;51.902;9.542;2023-08-08T04:35:35;4.10;;;3.80;;
462;SDS011;218;51.902;9.542;2023-08-08T04:38:02;5.03;;;4.30;;
462;SDS011;218;51.902;9.542;2023-08-08T04:40:29;3.90;;;3.50;;
462;SDS011;218;51.902;9.542;2023-08-08T04:42:57;5.07;;;4.45;;
462;SDS011;218;51.902;9.542;2023-08-08T04:45:24;4.47;;;4.07;;
462;SDS011;218;51.902;9.542;2023-08-08T04:47:52;4.47;;;4.18;;
462;SDS011;218;51.902;9.542;2023-08-08T04:50:19;4.00;;;3.70;;
462;SDS011;218;51.902;9.542;2023-08-08T04:52:47;4.47;;;3.83;;
462;SDS011;218;51.902;9.542;2023-08-08T04:55:14;4.40;;;4.00;;
462;SDS011;218;51.902;9.542;2023-08-08T04:57:41;3.60;;;3.40;;
462;SDS011;218;51.902;9.542;2023-08-08T05:00:09;3.95;;;3.65;;
462;SDS011;218;51.902;9.542;2023-08-08T05:02:37;4.13;;;3.83;;
462;SDS011;218;51.902;9.542;2023-08-08T05:05:06;4.35;;;4.05;;
462;SDS011;218;51.902;9.542;2023-08-08T05:07:34;4.30;;;4.00;;
462;SDS011;218;51.902;9.542;2023-08-08T05:10:04;4.17;;;3.77;;
462;SDS011;218;51.902;9.542;2023-08-08T05:12:32;4.40;;;4.00;;
462;SDS011;218;51.902;9.542;2023-08-08T05:14:59;4.07;;;3.77;;
462;SDS011;218;51.902;9.542;2023-08-08T05:17:26;4.60;;;4.15;;
462;SDS011;218;51.902;9.542;2023-08-08T05:19:53;4.10;;;3.80;;
462;SDS011;218;51.902;9.542;2023-08-08T05:22:20;3.83;;;3.60;;
462;SDS011;218;51.902;9.542;2023-08-08T05:24:48;3.78;;;3.53;;
462;SDS011;218;51.902;9.542;2023-08-08T05:27:16;4.05;;;3.75;;
462;SDS011;218;51.902;9.542;2023-08-08T05:29:43;4.05;;;3.75;;
462;SDS011;218;51.902;9.542;2023-08-08T05:32:10;5.03;;;4.55;;
462;SDS011;218;51.902;9.542;2023-08-08T05:34:38;4.00;;;3.70;;
462;SDS011;218;51.902;9.542;2023-08-08T05:37:05;3.80;;;3.50;;
462;SDS011;218;51.902;9.542;2023-08-08T05:39:32;3.88;;;3.58;;
462;SDS011;218;51.902;9.542;2023-08-08T05:41:59;3.85;;;3.65;;
462;SDS011;218;51.902;9.542;2023-08-08T05:44:28;4.00;;;3.70;;
462;SDS011;218;51.902;9.542;2023-08-08T05:46:55;3.87;;;3.63;;
462;SDS011;218;51.902;9.542;2023-08-08T05:49:22;4.07;;;3.80;;
462;SDS011;218;51.902;9.542;2023-08-08T05:51:49;3.93;;;3.63;;
462;SDS011;218;51.902;9.542;2023-08-08T05:54:16;4.47;;;3.03;;
462;SDS011;218;51.902;9.542;2023-08-08T05:56:43;4.00;;;3.70;;
462;SDS011;218;51.902;9.542;2023-08-08T05:59:11;4.30;;;3.90;;
462;SDS011;218;51.902;9.542;2023-08-08T06:01:39;5.05;;;4.55;;
462;SDS011;218;51.902;9.542;2023-08-08T06:04:06;4.23;;;3.90;;
462;SDS011;218;51.902;9.542;2023-08-08T06:06:34;3.60;;;3.30;;
462;SDS011;218;51.902;9.542;2023-08-08T06:09:00;3.40;;;3.20;;
462;SDS011;218;51.902;9.542;2023-08-08T06:11:27;4.17;;;3.77;;
462;SDS011;218;51.902;9.542;2023-08-08T06:13:55;3.70;;;3.40;;
462;SDS011;218;51.902;9.542;2023-08-08T06:16:22;3.77;;;3.47;;
462;SDS011;218;51.902;9.542;2023-08-08T06:18:51;5.93;;;3.93;;
462;SDS011;218;51.902;9.542;2023-08-08T06:21:18;4.20;;;3.80;;
462;SDS011;218;51.902;9.542;2023-08-08T06:23:45;6.10;;;4.77;;
462;SDS011;218;51.902;9.542;2023-08-08T06:26:14;4.57;;;4.17;;
462;SDS011;218;51.902;9.542;2023-08-08T06:28:41;5.57;;;4.10;;
462;SDS011;218;51.902;9.542;2023-08-08T06:31:08;5.50;;;4.40;;
462;SDS011;218;51.902;9.542;2023-08-08T06:33:35;6.17;;;4.00;;
462;SDS011;218;51.902;9.542;2023-08-08T06:36:04;5.20;;;4.70;;
462;SDS011;218;51.902;9.542;2023-08-08T06:38:32;4.70;;;4.27;;
462;SDS011;218;51.902;9.542;2023-08-08T06:40:59;4.47;;;4.17;;
462;SDS011;218;51.902;9.542;2023-08-08T06:43:26;4.07;;;3.67;;
462;SDS011;218;51.902;9.542;2023-08-08T06:45:53;4.73;;;4.43;;
462;SDS011;218;51.902;9.542;2023-08-08T06:48:21;4.30;;;3.90;;
462;SDS011;218;51.902;9.542;2023-08-08T06:50:48;5.33;;;4.93;;
462;SDS011;218;51.902;9.542;2023-08-08T06:53:16;4.50;;;4.10;;
462;SDS011;218;51.902;9.542;2023-08-08T06:55:43;5.53;;;5.13;;
462;SDS011;218;51.902;9.542;2023-08-08T06:58:10;4.17;;;3.77;;
462;SDS011;218;51.902;9.542;2023-08-08T07:00:38;4.10;;;3.80;;
462;SDS011;218;51.902;9.542;2023-08-08T07:03:05;4.13;;;3.80;;
462;SDS011;218;51.902;9.542;2023-08-08T07:05:32;4.90;;;4.50;;
462;SDS011;218;51.902;9.542;2023-08-08T07:07:59;4.10;;;3.80;;
462;SDS011;218;51.902;9.542;2023-08-08T07:10:28;4.93;;;4.50;;
462;SDS011;218;51.902;9.542;2023-08-08T07:12:55;5.97;;;5.37;;
462;SDS011;218;51.902;9.542;2023-08-08T07:15:23;5.23;;;4.73;;
462;SDS011;218;51.902;9.542;2023-08-08T07:17:50;5.40;;;5.00;;
462;SDS011;218;51.902;9.542;2023-08-08T07:20:17;5.47;;;5.07;;
462;SDS011;218;51.902;9.542;2023-08-08T07:22:44;7.20;;;6.40;;
462;SDS011;218;51.902;9.542;2023-08-08T07:25:11;8.33;;;5.87;;
462;SDS011;218;51.902;9.542;2023-08-08T07:27:40;8.00;;;7.23;;
462;SDS011;218;51.902;9.542;2023-08-08T07:30:07;10.93;;;7.10;;
462;SDS011;218;51.902;9.542;2023-08-08T07:32:34;7.10;;;6.60;;
462;SDS011;218;51.902;9.542;2023-08-08T07:35:01;7.30;;;6.60;;
462;SDS011;218;51.902;9.542;2023-08-08T07:37:30;6.63;;;6.13;;
462;SDS011;218;51.902;9.542;2023-08-08T07:39:58;6.13;;;5.70;;
462;SDS011;218;51.902;9.542;2023-08-08T07:42:25;6.73;;;6.10;;
462;SDS011;218;51.902;9.542;2023-08-08T07:44:54;7.40;;;6.30;;
462;SDS011;218;51.902;9.542;2023-08-08T07:47:21;7.93;;;5.73;;
462;SDS011;218;51.902;9.542;2023-08-08T07:49:48;6.60;;;6.00;;
462;SDS011;218;51.902;9.542;2023-08-08T07:52:15;9.37;;;6.37;;
462;SDS011;218;51.902;9.542;2023-08-08T07:54:42;10.17;;;6.57;;
462;SDS011;218;51.902;9.542;2023-08-08T07:57:09;6.87;;;6.37;;
462;SDS011;218;51.902;9.542;2023-08-08T07:59:37;6.10;;;5.60;;
462;SDS011;218;51.902;9.542;2023-08-08T08:02:05;7.40;;;6.60;;
462;SDS011;218;51.902;9.542;2023-08-08T08:04:33;7.40;;;6.77;;
462;SDS011;218;51.902;9.542;2023-08-08T08:07:01;6.70;;;6.13;;
462;SDS011;218;51.902;9.542;2023-08-08T08:09:28;7.00;;;6.40;;
462;SDS011;218;51.902;9.542;2023-08-08T08:11:55;6.20;;;5.67;;
462;SDS011;218;51.902;9.542;2023-08-08T08:14:22;6.80;;;6.20;;
462;SDS011;218;51.902;9.542;2023-08-08T08:16:49;7.03;;;6.43;;
462;SDS011;218;51.902;9.542;2023-08-08T08:19:17;6.90;;;6.30;;
462;SDS011;218;51.902;9.542;2023-08-08T08:21:45;6.97;;;6.27;;
462;SDS011;218;51.902;9.542;2023-08-08T08:24:12;6.23;;;5.20;;
462;SDS011;218;51.902;9.542;2023-08-08T08:26:39;7.30;;;6.57;;
462;SDS011;218;51.902;9.542;2023-08-08T08:29:05;7.73;;;6.90;;
462;SDS011;218;51.902;9.542;2023-08-08T08:31:32;6.50;;;6.00;;
462;SDS011;218;51.902;9.542;2023-08-08T08:33:59;6.50;;;6.00;;
462;SDS011;218;51.902;9.542;2023-08-08T08:36:28;6.20;;;5.70;;
462;SDS011;218;51.902;9.542;2023-08-08T08:38:55;7.20;;;6.50;;
462;SDS011;218;51.902;9.542;2023-08-08T08:41:23;7.13;;;6.60;;
462;SDS011;218;51.902;9.542;2023-08-08T08:43:53;6.87;;;6.37;;
462;SDS011;218;51.902;9.542;2023-08-08T08:46:21;6.13;;;5.63;;
462;SDS011;218;51.902;9.542;2023-08-08T08:48:48;6.63;;;6.13;;
462;SDS011;218;51.902;9.542;2023-08-08T08:51:16;6.50;;;5.90;;
462;SDS011;218;51.902;9.542;2023-08-08T08:53:44;7.63;;;6.03;;
462;SDS011;218;51.902;9.542;2023-08-08T08:56:12;8.17;;;7.53;;
462;SDS011;218;51.902;9.542;2023-08-08T08:58:39;8.53;;;6.43;;
462;SDS011;218;51.902;9.542;2023-08-08T09:01:07;7.53;;;5.93;;
462;SDS011;218;51.902;9.542;2023-08-08T09:03:34;6.10;;;5.70;;
462;SDS011;218;51.902;9.542;2023-08-08T09:06:02;6.53;;;5.70;;
462;SDS011;218;51.902;9.542;2023-08-08T09:08:29;6.90;;;5.90;;
462;SDS011;218;51.902;9.542;2023-08-08T09:10:57;10.10;;;7.50;;
462;SDS011;218;51.902;9.542;2023-08-08T09:13:25;6.07;;;5.53;;
462;SDS011;218;51.902;9.542;2023-08-08T09:15:52;6.83;;;6.33;;
462;SDS011;218;51.902;9.542;2023-08-08T09:18:22;5.60;;;5.20;;
462;SDS011;218;51.902;9.542;2023-08-08T09:20:50;7.70;;;6.60;;
462;SDS011;218;51.902;9.542;2023-08-08T09:23:18;6.50;;;5.77;;
462;SDS011;218;51.902;9.542;2023-08-08T09:25:44;6.93;;;6.00;;
462;SDS011;218;51.902;9.542;2023-08-08T09:28:13;7.10;;;6.40;;
462;SDS011;218;51.902;9.542;2023-08-08T09:30:40;7.70;;;6.90;;
462;SDS011;218;51.902;9.542;2023-08-08T09:33:07;6.33;;;5.70;;
462;SDS011;218;51.902;9.542;2023-08-08T09:35:37;6.60;;;6.00;;
462;SDS011;218;51.902;9.542;2023-08-08T09:38:05;6.53;;;5.53;;
462;SDS011;218;51.902;9.542;2023-08-08T09:40:32;8.33;;;6.73;;
462;SDS011;218;51.902;9.542;2023-08-08T09:42:59;7.90;;;6.10;;
462;SDS011;218;51.902;9.542;2023-08-08T09:45:34;6.40;;;5.90;;
462;SDS011;218;51.902;9.542;2023-08-08T09:48:02;7.67;;;5.60;;
462;SDS011;218;51.902;9.542;2023-08-08T09:50:30;5.40;;;4.97;;
462;SDS011;218;51.902;9.542;2023-08-08T09:52:59;5.50;;;5.07;;
462;SDS011;218;51.902;9.542;2023-08-08T09:55:27;6.67;;;5.87;;
462;SDS011;218;51.902;9.542;2023-08-08T09:57:55;5.70;;;4.93;;
462;SDS011;218;51.902;9.542;2023-08-08T10:00:24;6.97;;;5.43;;
462;SDS011;218;51.902;9.542;2023-08-08T10:02:54;5.97;;;5.57;;
462;SDS011;218;51.902;9.542;2023-08-08T10:05:21;5.53;;;5.13;;
462;SDS011;218;51.902;9.542;2023-08-08T10:07:50;5.93;;;5.20;;
462;SDS011;218;51.902;9.542;2023-08-08T10:10:17;5.50;;;5.10;;
462;SDS011;218;51.902;9.542;2023-08-08T10:12:44;5.27;;;4.70;;
462;SDS011;218;51.902;9.542;2023-08-08T10:15:12;5.60;;;4.67;;
462;SDS011;218;51.902;9.542;2023-08-08T10:17:40;6.27;;;5.83;;
462;SDS011;218;51.902;9.542;2023-08-08T10:20:09;6.60;;;5.90;;
462;SDS011;218;51.902;9.542;2023-08-08T10:22:37;6.17;;;5.50;;
462;SDS011;218;51.902;9.542;2023-08-08T10:25:05;6.50;;;5.60;;
462;SDS011;218;51.902;9.542;2023-08-08T10:27:33;7.40;;;5.90;;
462;SDS011;218;51.902;9.542;2023-08-08T10:30:04;6.17;;;5.57;;
462;SDS011;218;51.902;9.542;2023-08-08T10:32:40;6.43;;;5.20;;
462;SDS011;218;51.902;9.542;2023-08-08T10:35:10;5.23;;;4.70;;
462;SDS011;218;51.902;9.542;2023-08-08T10:37:38;4.47;;;4.07;;
462;SDS011;218;51.902;9.542;2023-08-08T10:40:10;5.43;;;4.97;;
462;SDS011;218;51.902;9.542;2023-08-08T10:42:43;6.50;;;4.60;;
462;SDS011;218;51.902;9.542;2023-08-08T10:45:10;5.90;;;4.10;;
462;SDS011;218;51.902;9.542;2023-08-08T10:47:39;4.97;;;4.47;;
462;SDS011;218;51.902;9.542;2023-08-08T10:50:06;4.57;;;4.17;;
462;SDS011;218;51.902;9.542;2023-08-08T10:52:49;4.53;;;4.23;;
462;SDS011;218;51.902;9.542;2023-08-08T10:55:20;5.20;;;4.80;;
462;SDS011;218;51.902;9.542;2023-08-08T10:57:54;4.90;;;4.50;;
462;SDS011;218;51.902;9.542;2023-08-08T11:00:28;4.90;;;4.60;;
462;SDS011;218;51.902;9.542;2023-08-08T11:02:55;5.47;;;5.03;;
462;SDS011;218;51.902;9.542;2023-08-08T11:05:23;4.90;;;4.60;;
462;SDS011;218;51.902;9.542;2023-08-08T11:07:52;5.47;;;5.07;;
462;SDS011;218;51.902;9.542;2023-08-08T11:10:21;5.73;;;5.33;;
462;SDS011;218;51.902;9.542;2023-08-08T11:12:55;6.37;;;5.87;;
462;SDS011;218;51.902;9.542;2023-08-08T11:15:23;6.20;;;5.77;;
462;SDS011;218;51.902;9.542;2023-08-08T11:17:52;6.23;;;5.73;;
462;SDS011;218;51.902;9.542;2023-08-08T11:20:20;7.00;;;6.40;;
462;SDS011;218;51.902;9.542;2023-08-08T11:22:50;5.43;;;5.00;;
462;SDS011;218;51.902;9.542;2023-08-08T11:25:19;6.53;;;5.93;;
462;SDS011;218;51.902;9.542;2023-08-08T11:27:50;6.17;;;5.50;;
462;SDS011;218;51.902;9.542;2023-08-08T11:30:18;8.03;;;5.87;;
462;SDS011;218;51.902;9.542;2023-08-08T11:32:46;6.30;;;5.70;;
462;SDS011;218;51.902;9.542;2023-08-08T11:35:15;6.60;;;6.10;;
462;SDS011;218;51.902;9.542;2023-08-08T11:37:43;5.77;;;5.37;;
462;SDS011;218;51.902;9.542;2023-08-08T11:40:12;6.60;;;6.10;;
462;SDS011;218;51.902;9.542;2023-08-08T11:42:40;5.53;;;5.07;;
462;SDS011;218;51.902;9.542;2023-08-08T11:45:08;5.53;;;5.13;;
462;SDS011;218;51.902;9.542;2023-08-08T11:47:37;6.27;;;5.67;;
462;SDS011;218;51.902;9.542;2023-08-08T11:50:05;6.30;;;5.80;;
462;SDS011;218;51.902;9.542;2023-08-08T11:52:34;4.70;;;4.30;;
462;SDS011;218;51.902;9.542;2023-08-08T11:55:02;6.07;;;4.27;;
462;SDS011;218;51.902;9.542;2023-08-08T11:57:32;5.17;;;4.50;;
462;SDS011;218;51.902;9.542;2023-08-08T12:00:02;5.17;;;4.70;;
462;SDS011;218;51.902;9.542;2023-08-08T12:02:32;4.90;;;4.60;;
462;SDS011;218;51.902;9.542;2023-08-08T12:05:03;5.30;;;4.90;;
462;SDS011;218;51.902;9.542;2023-08-08T12:07:31;6.77;;;5.20;;
462;SDS011;218;51.902;9.542;2023-08-08T12:09:59;5.27;;;4.60;;
462;SDS011;218;51.902;9.542;2023-08-08T12:12:26;4.37;;;3.97;;
462;SDS011;218;51.902;9.542;2023-08-08T12:14:55;4.20;;;3.53;;
462;SDS011;218;51.902;9.542;2023-08-08T12:17:22;4.00;;;3.70;;
462;SDS011;218;51.902;9.542;2023-08-08T12:19:49;6.10;;;4.33;;
462;SDS011;218;51.902;9.542;2023-08-08T12:22:16;4.17;;;3.77;;
462;SDS011;218;51.902;9.542;2023-08-08T12:24:43;3.53;;;2.97;;
462;SDS011;218;51.902;9.542;2023-08-08T12:27:11;3.17;;;2.97;;
462;SDS011;218;51.902;9.542;2023-08-08T12:29:38;2.60;;;2.40;;
462;SDS011;218;51.902;9.542;2023-08-08T12:32:06;5.47;;;3.53;;
462;SDS011;218;51.902;9.542;2023-08-08T12:34:34;3.10;;;2.70;;
462;SDS011;218;51.902;9.542;2023-08-08T12:37:00;3.80;;;2.93;;
462;SDS011;218;51.902;9.542;2023-08-08T12:39:28;3.03;;;2.83;;
462;SDS011;218;51.902;9.542;2023-08-08T12:41:55;3.50;;;3.20;;
462;SDS011;218;51.902;9.542;2023-08-08T12:44:22;4.43;;;3.60;;
462;SDS011;218;51.902;9.542;2023-08-08T12:46:49;4.47;;;3.53;;
462;SDS011;218;51.902;9.542;2023-08-08T12:49:17;3.43;;;3.13;;
462;SDS011;218;51.902;9.542;2023-08-08T12:51:44;3.67;;;3.47;;
462;SDS011;218;51.902;9.542;2023-08-08T12:54:11;4.77;;;3.10;;
462;SDS011;218;51.902;9.542;2023-08-08T12:56:39;2.87;;;2.67;;
462;SDS011;218;51.902;9.542;2023-08-08T12:59:06;2.80;;;2.60;;
462;SDS011;218;51.902;9.542;2023-08-08T13:01:32;3.33;;;3.13;;
462;SDS011;218;51.902;9.542;2023-08-08T13:03:59;2.83;;;2.63;;
462;SDS011;218;51.902;9.542;2023-08-08T13:06:28;2.70;;;2.50;;
462;SDS011;218;51.902;9.542;2023-08-08T13:08:54;3.23;;;3.00;;
462;SDS011;218;51.902;9.542;2023-08-08T13:11:22;3.97;;;3.57;;
462;SDS011;218;51.902;9.542;2023-08-08T13:13:48;2.93;;;2.73;;
462;SDS011;218;51.902;9.542;2023-08-08T13:16:15;3.80;;;2.53;;
462;SDS011;218;51.902;9.542;2023-08-08T13:18:42;3.63;;;3.33;;
462;SDS011;218;51.902;9.542;2023-08-08T13:21:09;3.60;;;2.70;;
462;SDS011;218;51.902;9.542;2023-08-08T13:23:40;5.00;;;3.27;;
462;SDS011;218;51.902;9.542;2023-08-08T13:26:07;3.47;;;2.70;;
462;SDS011;218;51.902;9.542;2023-08-08T13:28:33;3.10;;;2.90;;
462;SDS011;218;51.902;9.542;2023-08-08T13:31:00;2.60;;;2.40;;
462;SDS011;218;51.902;9.542;2023-08-08T13:33:27;2.90;;;2.70;;
462;SDS011;218;51.902;9.542;2023-08-08T13:35:54;2.60;;;2.50;;
462;SDS011;218;51.902;9.542;2023-08-08T13:38:21;4.13;;;3.10;;
462;SDS011;218;51.902;9.542;2023-08-08T13:40:50;2.90;;;2.60;;
462;SDS011;218;51.902;9.542;2023-08-08T13:43:17;5.40;;;2.87;;
462;SDS011;218;51.902;9.542;2023-08-08T13:45:45;2.57;;;2.37;;
462;SDS011;218;51.902;9.542;2023-08-08T13:48:11;4.40;;;2.70;;
462;SDS011;218;51.902;9.542;2023-08-08T13:50:38;3.77;;;2.40;;
462;SDS011;218;51.902;9.542;2023-08-08T13:53:05;3.73;;;2.27;;
462;SDS011;218;51.902;9.542;2023-08-08T13:55:32;3.40;;;3.10;;
462;SDS011;218;51.902;9.542;2023-08-08T13:58:05;3.10;;;2.80;;
462;SDS011;218;51.902;9.542;2023-08-08T14:00:32;4.13;;;2.73;;
462;SDS011;218;51.902;9.542;2023-08-08T14:03:00;3.03;;;2.70;;
462;SDS011;218;51.902;9.542;2023-08-08T14:05:27;3.70;;;3.37;;
462;SDS011;218;51.902;9.542;2023-08-08T14:07:55;3.33;;;2.80;;
462;SDS011;218;51.902;9.542;2023-08-08T14:10:22;3.03;;;2.70;;
462;SDS011;218;51.902;9.542;2023-08-08T14:12:49;4.57;;;3.00;;
462;SDS011;218;51.902;9.542;2023-08-08T14:15:17;2.87;;;2.67;;
462;SDS011;218;51.902;9.542;2023-08-08T14:17:44;4.63;;;2.70;;
462;SDS011;218;51.902;9.542;2023-08-08T14:20:11;3.90;;;2.83;;
462;SDS011;218;51.902;9.542;2023-08-08T14:22:38;2.93;;;2.63;;
462;SDS011;218;51.902;9.542;2023-08-08T14:25:05;2.80;;;2.60;;
462;SDS011;218;51.902;9.542;2023-08-08T14:27:32;6.73;;;3.67;;
462;SDS011;218;51.902;9.542;2023-08-08T14:29:59;2.83;;;2.40;;
462;SDS011;218;51.902;9.542;2023-08-08T14:32:28;2.23;;;2.10;;
462;SDS011;218;51.902;9.542;2023-08-08T14:34:55;4.37;;;2.63;;
462;SDS011;218;51.902;9.542;2023-08-08T14:37:22;2.97;;;2.53;;
462;SDS011;218;51.902;9.542;2023-08-08T14:39:50;2.50;;;2.30;;
462;SDS011;218;51.902;9.542;2023-08-08T14:42:17;2.83;;;2.53;;
462;SDS011;218;51.902;9.542;2023-08-08T14:44:45;4.07;;;2.57;;
462;SDS011;218;51.902;9.542;2023-08-08T14:47:12;3.93;;;2.87;;
462;SDS011;218;51.902;9.542;2023-08-08T14:49:40;3.30;;;2.90;;
462;SDS011;218;51.902;9.542;2023-08-08T14:52:07;5.43;;;3.13;;
462;SDS011;218;51.902;9.542;2023-08-08T14:54:34;3.07;;;2.80;;
462;SDS011;218;51.902;9.542;2023-08-08T14:57:03;3.70;;;3.40;;
462;SDS011;218;51.902;9.542;2023-08-08T14:59:30;3.00;;;2.80;;
462;SDS011;218;51.902;9.542;2023-08-08T15:01:57;3.50;;;2.50;;
462;SDS011;218;51.902;9.542;2023-08-08T15:04:24;5.53;;;2.90;;
462;SDS011;218;51.902;9.542;2023-08-08T15:06:52;5.83;;;2.90;;
462;SDS011;218;51.902;9.542;2023-08-08T15:09:19;6.47;;;3.20;;
462;SDS011;218;51.902;9.542;2023-08-08T15:11:46;2.67;;;2.47;;
462;SDS011;218;51.902;9.542;2023-08-08T15:14:13;2.90;;;2.70;;
462;SDS011;218;51.902;9.542;2023-08-08T15:16:40;3.53;;;2.90;;
462;SDS011;218;51.902;9.542;2023-08-08T15:19:08;2.40;;;2.20;;
462;SDS011;218;51.902;9.542;2023-08-08T15:21:35;2.53;;;2.33;;
462;SDS011;218;51.902;9.542;2023-08-08T15:24:03;2.83;;;2.63;;
462;SDS011;218;51.902;9.542;2023-08-08T15:26:30;3.10;;;2.67;;
462;SDS011;218;51.902;9.542;2023-08-08T15:28:57;2.77;;;2.40;;
462;SDS011;218;51.902;9.542;2023-08-08T15:31:24;4.37;;;2.10;;
462;SDS011;218;51.902;9.542;2023-08-08T15:33:51;3.80;;;2.07;;
462;SDS011;218;51.902;9.542;2023-08-08T15:36:18;2.47;;;2.27;;
462;SDS011;218;51.902;9.542;2023-08-08T15:38:45;1.90;;;1.80;;
462;SDS011;218;51.902;9.542;2023-08-08T15:41:17;2.10;;;2.00;;
462;SDS011;218;51.902;9.542;2023-08-08T15:43:44;2.07;;;1.87;;
462;SDS011;218;51.902;9.542;2023-08-08T15:46:11;2.17;;;2.07;;
462;SDS011;218;51.902;9.542;2023-08-08T15:48:39;2.33;;;2.23;;